createdAt,value
2022-10-14T00:02:22.514Z,33.47
2022-10-14T00:04:57.442Z,39.80
2022-10-14T00:07:30.042Z,38.42
2022-10-14T00:10:03.055Z,35.22
2022-10-14T00:12:35.717Z,37.45
2022-10-14T00:15:09.408Z,37.60
2022-10-14T00:17:42.040Z,40.65
2022-10-14T00:20:14.877Z,38.20
2022-10-14T00:22:47.433Z,32.78
2022-10-14T00:25:20.252Z,36.17
2022-10-14T00:27:53.121Z,34.22
2022-10-14T00:30:25.950Z,37.80
2022-10-14T00:33:00.442Z,40.53
2022-10-14T00:35:33.327Z,37.97
2022-10-14T00:38:06.006Z,36.65
2022-10-14T00:40:38.774Z,38.58
2022-10-14T00:43:14.434Z,33.20
2022-10-14T00:45:47.567Z,33.75
2022-10-14T00:48:23.635Z,32.97
2022-10-14T00:50:57.450Z,32.53
2022-10-14T00:53:29.959Z,31.50
2022-10-14T00:56:04.668Z,35.97
2022-10-14T00:58:38.441Z,31.93
2022-10-14T01:01:11.862Z,34.10
2022-10-14T01:03:44.566Z,40.67
2022-10-14T01:06:20.312Z,40.05
2022-10-14T01:08:59.057Z,36.33
2022-10-14T01:11:36.928Z,37.45
2022-10-14T01:14:23.995Z,37.43
2022-10-14T01:17:17.404Z,34.75
2022-10-14T01:20:10.230Z,40.47
2022-10-14T01:22:46.151Z,35.97
2022-10-14T01:25:35.526Z,38.33
2022-10-14T01:28:27.220Z,39.17
2022-10-14T01:31:04.982Z,38.17
2022-10-14T01:33:39.038Z,40.83
2022-10-14T01:36:26.259Z,35.78
2022-10-14T01:39:03.944Z,36.60
2022-10-14T01:41:39.349Z,45.50
2022-10-14T01:44:13.206Z,38.00
2022-10-14T01:46:48.970Z,33.03
2022-10-14T01:49:48.238Z,35.07
2022-10-14T01:52:23.218Z,40.85
2022-10-14T01:54:57.889Z,39.77
2022-10-14T01:57:33.379Z,32.35
2022-10-14T02:00:06.858Z,35.28
2022-10-14T02:02:46.337Z,38.05
2022-10-14T02:05:27.181Z,37.45
2022-10-14T02:08:06.514Z,38.58
2022-10-14T02:10:51.873Z,41.13
2022-10-14T02:13:24.299Z,37.47
2022-10-14T02:16:04.089Z,37.10
2022-10-14T02:18:39.913Z,36.03
2022-10-14T02:21:20.020Z,40.00
2022-10-14T02:23:56.809Z,41.20
2022-10-14T02:26:30.447Z,38.85
2022-10-14T02:29:05.819Z,40.88
2022-10-14T02:31:40.977Z,39.10
2022-10-14T02:34:16.361Z,41.47
2022-10-14T02:36:50.426Z,36.03
2022-10-14T02:39:28.233Z,41.33
2022-10-14T02:42:03.748Z,40.17
2022-10-14T02:44:51.598Z,35.63
2022-10-14T02:47:25.135Z,36.55
2022-10-14T02:49:57.788Z,37.20
2022-10-14T02:52:30.964Z,32.97
2022-10-14T02:55:03.968Z,42.67
2022-10-14T02:57:36.850Z,38.65
2022-10-14T03:00:09.647Z,37.65
2022-10-14T03:02:42.660Z,44.67
2022-10-14T03:05:15.429Z,39.38
2022-10-14T03:07:48.286Z,47.40
2022-10-14T03:10:23.933Z,44.00
2022-10-14T03:12:57.229Z,47.13
2022-10-14T03:15:35.374Z,43.70
2022-10-14T03:18:10.725Z,38.45
2022-10-14T03:20:51.415Z,45.58
2022-10-14T03:23:29.864Z,43.58
2022-10-14T03:26:03.258Z,40.08
2022-10-14T03:28:44.077Z,42.05
2022-10-14T03:31:25.731Z,44.35
2022-10-14T03:34:24.487Z,45.45
2022-10-14T03:37:08.023Z,42.35
2022-10-14T03:39:49.731Z,39.88
2022-10-14T03:42:23.943Z,46.70
2022-10-14T03:44:57.066Z,45.80
2022-10-14T03:47:33.450Z,47.38
2022-10-14T03:50:06.873Z,42.63
2022-10-14T03:52:46.851Z,43.88
2022-10-14T03:55:36.647Z,44.78
2022-10-14T03:58:12.074Z,48.67
2022-10-14T04:00:53.929Z,44.67
2022-10-14T04:03:37.588Z,48.80
2022-10-14T04:06:10.770Z,46.50
2022-10-14T04:08:44.126Z,49.67
2022-10-14T04:11:33.055Z,43.50
2022-10-14T04:14:10.731Z,49.13
2022-10-14T04:16:52.991Z,50.47
2022-10-14T04:19:25.954Z,49.05
2022-10-14T04:22:00.099Z,46.20
2022-10-14T04:24:33.472Z,54.55
2022-10-14T04:27:08.106Z,54.47
2022-10-14T04:29:50.674Z,61.60
2022-10-14T04:32:31.158Z,53.30
2022-10-14T04:35:03.951Z,57.28
2022-10-14T04:37:36.907Z,51.78
2022-10-14T04:40:17.137Z,54.10
2022-10-14T04:42:57.941Z,49.40
2022-10-14T04:45:37.044Z,49.45
2022-10-14T04:48:10.519Z,52.60
2022-10-14T04:50:50.083Z,55.17
2022-10-14T04:53:46.214Z,55.30
2022-10-14T04:56:33.701Z,47.15
2022-10-14T04:59:08.912Z,61.33
2022-10-14T05:02:11.157Z,54.83
2022-10-14T05:04:49.492Z,52.72
2022-10-14T05:07:22.882Z,62.47
2022-10-14T05:10:01.908Z,55.83
2022-10-14T05:12:42.702Z,62.85
2022-10-14T05:15:16.949Z,51.35
2022-10-14T05:18:00.398Z,57.25
2022-10-14T05:20:48.989Z,57.40
2022-10-14T05:23:23.694Z,51.13
2022-10-14T05:25:57.545Z,57.55
2022-10-14T05:28:31.475Z,52.63
2022-10-14T05:31:05.387Z,57.42
2022-10-14T05:33:41.959Z,49.78
2022-10-14T05:36:15.529Z,52.33
2022-10-14T05:38:48.489Z,51.05
2022-10-14T05:41:25.168Z,54.63
2022-10-14T05:43:57.655Z,50.40
2022-10-14T05:46:31.163Z,51.15
2022-10-14T05:49:06.318Z,50.20
2022-10-14T05:51:42.772Z,55.20
2022-10-14T05:54:26.097Z,58.37
2022-10-14T05:57:01.324Z,55.17
2022-10-14T05:59:35.219Z,52.60
2022-10-14T06:02:09.945Z,55.35
2022-10-14T06:04:42.893Z,49.10
2022-10-14T06:07:22.066Z,50.63
2022-10-14T06:09:57.950Z,47.20
2022-10-14T06:12:31.041Z,48.33
2022-10-14T06:15:03.990Z,54.07
2022-10-14T06:17:37.041Z,55.08
2022-10-14T06:20:10.280Z,50.03
2022-10-14T06:22:43.253Z,54.30
2022-10-14T06:25:15.969Z,52.00
2022-10-14T06:27:48.930Z,50.30
2022-10-14T06:30:21.472Z,57.45
2022-10-14T06:32:54.602Z,52.45
2022-10-14T06:35:27.055Z,52.53
2022-10-14T06:37:59.903Z,62.72
2022-10-14T06:40:32.810Z,46.42
2022-10-14T06:43:05.914Z,44.57
2022-10-14T06:45:38.510Z,49.95
2022-10-14T06:48:11.342Z,43.08
2022-10-14T06:50:43.812Z,48.20
2022-10-14T06:53:16.675Z,44.30
2022-10-14T06:55:49.210Z,40.97
2022-10-14T06:58:22.053Z,43.63
2022-10-14T07:00:54.689Z,48.30
2022-10-14T07:03:27.499Z,40.67
2022-10-14T07:06:03.141Z,43.15
2022-10-14T07:08:36.562Z,45.67
2022-10-14T07:11:09.794Z,43.33
2022-10-14T07:13:43.102Z,42.85
2022-10-14T07:16:15.639Z,41.13
2022-10-14T07:18:48.918Z,40.30
2022-10-14T07:21:21.686Z,37.25
2022-10-14T07:23:55.819Z,38.00
2022-10-14T07:26:30.942Z,41.08
2022-10-14T07:29:04.921Z,38.60
2022-10-14T07:31:37.664Z,35.20
2022-10-14T07:34:10.538Z,41.17
2022-10-14T07:36:43.017Z,40.77
2022-10-14T07:39:16.274Z,40.80
2022-10-14T07:41:48.865Z,46.58
2022-10-14T07:44:24.935Z,35.97
2022-10-14T07:47:01.953Z,33.58
2022-10-14T07:49:34.857Z,34.35
2022-10-14T07:52:07.424Z,34.75
2022-10-14T07:54:40.410Z,30.83
2022-10-14T07:57:12.985Z,32.70
2022-10-14T07:59:47.113Z,37.90
2022-10-14T08:02:19.839Z,37.40
2022-10-14T08:04:53.363Z,29.57
2022-10-14T08:07:27.274Z,29.30
2022-10-14T08:10:00.295Z,29.90
2022-10-14T08:12:33.213Z,29.75
2022-10-14T08:15:06.806Z,33.70
2022-10-14T08:17:39.612Z,34.63
2022-10-14T08:20:12.810Z,31.95
2022-10-14T08:22:45.376Z,26.73
2022-10-14T08:25:18.312Z,26.67
2022-10-14T08:27:52.014Z,25.98
2022-10-14T08:30:25.708Z,31.13
2022-10-14T08:32:58.341Z,27.30
2022-10-14T08:35:31.301Z,25.83
2022-10-14T08:38:03.930Z,29.67
2022-10-14T08:40:57.228Z,25.88
2022-10-14T08:44:01.926Z,25.65
2022-10-14T08:46:34.863Z,27.85
2022-10-14T08:49:16.699Z,22.15
2022-10-14T08:51:53.216Z,26.20
2022-10-14T08:54:30.321Z,22.43
2022-10-14T08:57:04.683Z,22.50
2022-10-14T08:59:40.538Z,23.45
2022-10-14T09:02:30.189Z,22.83
2022-10-14T09:05:03.672Z,22.60
2022-10-14T09:07:37.546Z,18.33
2022-10-14T09:10:15.118Z,21.02
2022-10-14T09:12:48.141Z,16.73
2022-10-14T09:15:24.894Z,22.98
2022-10-14T09:18:07.287Z,22.73
2022-10-14T09:20:41.000Z,18.48
2022-10-14T09:23:23.258Z,18.97
2022-10-14T09:25:58.705Z,20.52
2022-10-14T09:28:38.673Z,16.90
2022-10-14T09:31:12.476Z,24.73
2022-10-14T09:33:45.590Z,20.17
2022-10-14T09:36:20.183Z,19.70
2022-10-14T09:38:54.399Z,17.73
2022-10-14T09:41:30.679Z,17.83
2022-10-14T09:44:22.664Z,17.75
2022-10-14T09:46:59.164Z,15.03
2022-10-14T09:49:37.924Z,19.70
2022-10-14T09:52:21.059Z,11.95
2022-10-14T09:54:59.072Z,11.38
2022-10-14T09:57:32.479Z,13.30
2022-10-14T10:00:06.911Z,14.50
2022-10-14T10:02:45.051Z,10.60
2022-10-14T10:05:27.526Z,10.97
2022-10-14T10:08:05.227Z,11.50
2022-10-14T10:10:38.167Z,14.23
2022-10-14T10:13:23.500Z,11.75
2022-10-14T10:16:00.517Z,11.40
2022-10-14T10:18:33.797Z,16.13
2022-10-14T10:21:17.429Z,12.43
2022-10-14T10:23:52.351Z,15.15
2022-10-14T10:26:32.056Z,12.10
2022-10-14T10:29:06.153Z,11.10
2022-10-14T10:31:44.861Z,12.50
2022-10-14T10:34:17.307Z,13.75
2022-10-14T10:36:53.641Z,11.13
2022-10-14T10:39:38.430Z,10.25
2022-10-14T10:42:11.391Z,13.05
2022-10-14T10:44:43.817Z,11.32
2022-10-14T10:47:16.726Z,13.95
2022-10-14T10:52:54.359Z,12.50
2022-10-14T10:55:42.091Z,10.30
2022-10-14T10:58:35.708Z,15.45
2022-10-14T11:01:08.553Z,13.63
2022-10-14T11:03:44.466Z,11.67
2022-10-14T11:06:42.887Z,10.68
2022-10-14T11:09:39.959Z,13.55
2022-10-14T11:12:20.990Z,12.23
2022-10-14T11:15:09.809Z,11.88
2022-10-14T11:18:00.555Z,13.88
2022-10-14T11:20:42.328Z,11.70
2022-10-14T11:23:35.082Z,9.93
2022-10-14T11:26:26.904Z,15.40
2022-10-14T11:28:59.854Z,11.60
2022-10-14T11:31:39.452Z,11.05
2022-10-14T11:34:30.773Z,11.63
2022-10-14T11:37:03.606Z,11.68
2022-10-14T11:39:42.180Z,10.45
2022-10-14T11:42:25.766Z,13.82
2022-10-14T11:45:17.268Z,24.00
2022-10-14T11:47:53.890Z,9.90
2022-10-14T11:50:36.956Z,8.47
2022-10-14T11:53:13.546Z,9.95
2022-10-14T11:56:08.920Z,9.82
2022-10-14T11:58:43.682Z,10.23
2022-10-14T12:01:17.240Z,10.40
2022-10-14T12:03:58.937Z,8.90
2022-10-14T12:06:37.392Z,11.47
2022-10-14T12:09:15.156Z,10.57
2022-10-14T12:11:51.717Z,11.70
2022-10-14T12:14:33.699Z,11.37
2022-10-14T12:17:08.227Z,8.95
2022-10-14T12:19:41.230Z,11.85
2022-10-14T12:22:25.570Z,11.82
2022-10-14T12:25:04.011Z,9.13
2022-10-14T12:27:37.533Z,13.87
2022-10-14T12:30:29.270Z,13.07
2022-10-14T12:33:03.217Z,10.43
2022-10-14T12:35:46.952Z,9.73
2022-10-14T12:38:22.959Z,13.17
2022-10-14T12:41:09.314Z,11.82
2022-10-14T12:43:42.994Z,12.40
2022-10-14T12:46:15.804Z,9.38
2022-10-14T12:48:51.257Z,13.38
2022-10-14T12:51:25.040Z,8.55
2022-10-14T12:54:06.094Z,12.82
2022-10-14T12:56:41.937Z,8.65
2022-10-14T12:59:21.837Z,12.27
2022-10-14T13:01:56.383Z,9.65
2022-10-14T13:04:29.381Z,8.68
2022-10-14T13:07:39.785Z,7.57
2022-10-14T13:10:28.577Z,8.45
2022-10-14T13:13:23.754Z,9.63
2022-10-14T13:15:59.990Z,9.15
2022-10-14T13:18:38.804Z,9.80
2022-10-14T13:21:20.750Z,9.48
2022-10-14T13:23:55.446Z,11.23
2022-10-14T13:26:30.972Z,9.35
2022-10-14T13:29:04.080Z,9.73
2022-10-14T13:31:36.552Z,10.67
2022-10-14T13:34:24.763Z,9.63
2022-10-14T13:37:02.462Z,9.57
2022-10-14T13:39:35.528Z,12.27
2022-10-14T13:42:11.963Z,10.73
2022-10-14T13:44:44.874Z,8.70
2022-10-14T13:47:20.653Z,10.25
2022-10-14T13:49:53.817Z,9.95
2022-10-14T13:52:26.961Z,8.63
2022-10-14T13:55:19.840Z,14.60
2022-10-14T13:58:13.824Z,7.82
2022-10-14T14:00:58.151Z,10.83
2022-10-14T14:03:38.104Z,9.17
2022-10-14T14:06:13.549Z,12.20
2022-10-14T14:08:46.449Z,7.67
2022-10-14T14:11:22.124Z,9.95
2022-10-14T14:14:00.751Z,10.60
2022-10-14T14:16:38.371Z,10.68
2022-10-14T14:19:21.159Z,9.95
2022-10-14T14:22:14.060Z,8.13
2022-10-14T14:24:47.593Z,9.07
2022-10-14T14:27:22.054Z,10.88
2022-10-14T14:29:55.543Z,10.32
2022-10-14T14:32:32.623Z,12.25
2022-10-14T14:35:05.711Z,13.52
2022-10-14T14:37:55.600Z,9.93
2022-10-14T14:40:30.424Z,10.70
2022-10-14T14:43:04.529Z,11.02
2022-10-14T14:45:45.110Z,9.98
2022-10-14T14:48:18.068Z,10.80
2022-10-14T14:50:50.860Z,12.93
2022-10-14T14:53:27.639Z,20.70
2022-10-14T14:56:00.779Z,15.13
2022-10-14T14:58:45.058Z,15.57
2022-10-14T15:01:24.365Z,23.60
2022-10-14T15:04:13.040Z,20.58
2022-10-14T15:07:08.883Z,20.73
2022-10-14T15:09:43.337Z,17.75
2022-10-14T15:12:39.533Z,24.15
2022-10-14T15:15:25.783Z,13.03
2022-10-14T15:18:15.557Z,14.50
2022-10-14T15:20:50.790Z,12.68
2022-10-14T15:23:42.049Z,10.07
2022-10-14T15:26:25.747Z,11.63
2022-10-14T15:29:16.614Z,11.05
2022-10-14T15:32:09.620Z,12.30
2022-10-14T15:34:42.278Z,11.45
2022-10-14T15:37:15.352Z,11.38
2022-10-14T15:40:01.548Z,15.00
2022-10-14T15:42:34.485Z,14.77
2022-10-14T15:45:07.391Z,16.40
2022-10-14T15:47:40.794Z,17.67
2022-10-14T15:50:17.467Z,16.70
2022-10-14T15:52:57.239Z,11.88
2022-10-14T15:55:30.703Z,13.00
2022-10-14T15:58:03.671Z,11.97
2022-10-14T16:00:36.844Z,15.50
2022-10-14T16:03:11.216Z,11.25
2022-10-14T16:05:43.894Z,13.40
2022-10-14T16:08:18.606Z,12.17
2022-10-14T16:10:51.093Z,17.80
2022-10-14T16:13:23.883Z,15.43
2022-10-14T16:15:58.500Z,17.40
2022-10-14T16:18:32.330Z,16.05
2022-10-14T16:21:06.174Z,15.48
2022-10-14T16:23:39.276Z,14.00
2022-10-14T16:26:13.659Z,13.85
2022-10-14T16:28:47.425Z,16.67
2022-10-14T16:31:22.768Z,15.82
2022-10-14T16:33:59.279Z,15.38
2022-10-14T16:36:31.846Z,16.67
2022-10-14T16:39:10.084Z,16.75
2022-10-14T16:41:43.105Z,17.35
2022-10-14T16:44:27.780Z,17.52
2022-10-14T16:47:19.809Z,19.10
2022-10-14T16:49:52.876Z,19.67
2022-10-14T16:52:25.405Z,23.70
2022-10-14T16:54:58.940Z,23.70
2022-10-14T16:57:31.444Z,18.85
2022-10-14T17:00:05.201Z,20.83
2022-10-14T17:02:37.905Z,23.85
2022-10-14T17:05:11.653Z,23.23
2022-10-14T17:07:44.713Z,23.98
2022-10-14T17:10:17.596Z,20.70
2022-10-14T17:12:50.510Z,23.95
2022-10-14T17:15:23.440Z,27.35
2022-10-14T17:17:56.016Z,34.22
2022-10-14T17:20:28.996Z,26.27
2022-10-14T17:23:01.537Z,26.30
2022-10-14T17:25:35.833Z,26.08
2022-10-14T17:28:09.147Z,26.90
2022-10-14T17:30:42.056Z,24.88
2022-10-14T17:33:14.934Z,24.13
2022-10-14T17:35:47.783Z,28.77
2022-10-14T17:38:20.724Z,28.00
2022-10-14T17:40:53.788Z,25.33
2022-10-14T17:43:26.631Z,30.42
2022-10-14T17:46:03.344Z,34.42
2022-10-14T17:48:36.054Z,44.25
2022-10-14T17:51:12.525Z,40.60
2022-10-14T17:53:45.448Z,37.28
2022-10-14T17:56:18.308Z,45.97
2022-10-14T17:58:55.076Z,46.07
2022-10-14T18:01:37.097Z,35.28
2022-10-14T18:04:16.957Z,30.45
2022-10-14T18:06:49.806Z,34.95
2022-10-14T18:09:22.372Z,30.40
2022-10-14T18:12:08.115Z,26.63
2022-10-14T18:14:42.492Z,31.33
2022-10-14T18:17:15.441Z,29.10
2022-10-14T18:19:51.968Z,26.88
2022-10-14T18:22:25.276Z,31.90
2022-10-14T18:24:57.794Z,30.33
2022-10-14T18:27:31.695Z,30.50
2022-10-14T18:30:04.449Z,27.98
2022-10-14T18:32:37.806Z,28.83
2022-10-14T18:35:10.519Z,31.63
2022-10-14T18:37:43.421Z,35.92
2022-10-14T18:40:18.554Z,29.13
2022-10-14T18:42:57.543Z,30.55
2022-10-14T18:45:30.045Z,30.55
2022-10-14T18:48:03.589Z,31.60
2022-10-14T18:50:36.336Z,31.17
2022-10-14T18:53:09.133Z,32.13
2022-10-14T18:55:42.602Z,36.45
2022-10-14T18:58:15.570Z,36.40
2022-10-14T19:00:48.503Z,34.92
2022-10-14T19:03:21.491Z,28.23
2022-10-14T19:05:57.203Z,32.67
2022-10-14T19:08:30.524Z,28.05
2022-10-14T19:11:18.330Z,29.20
2022-10-14T19:13:52.694Z,28.13
2022-10-14T19:16:32.690Z,26.58
2022-10-14T19:19:17.132Z,28.23
2022-10-14T19:21:50.834Z,22.85
2022-10-14T19:24:23.819Z,26.70
2022-10-14T19:26:57.344Z,22.33
2022-10-14T19:29:30.233Z,28.27
2022-10-14T19:32:02.762Z,30.80
2022-10-14T19:34:35.633Z,30.63
2022-10-14T19:37:08.286Z,22.38
2022-10-14T19:39:41.092Z,25.75
2022-10-14T19:42:13.623Z,26.13
2022-10-14T19:44:46.450Z,30.08
2022-10-14T19:47:18.898Z,25.30
2022-10-14T19:49:51.800Z,31.65
2022-10-14T19:52:24.411Z,26.45
2022-10-14T19:54:57.298Z,33.13
2022-10-14T19:57:29.809Z,32.40
2022-10-14T20:00:02.739Z,30.65
2022-10-14T20:05:31.242Z,25.05
2022-10-14T20:08:04.409Z,29.08
2022-10-14T20:10:37.305Z,30.88
2022-10-14T20:13:11.292Z,27.33
2022-10-14T20:15:44.412Z,28.17
2022-10-14T20:18:18.794Z,29.02
2022-10-14T20:20:51.648Z,30.27
2022-10-14T20:23:25.961Z,31.45
2022-10-14T20:26:02.437Z,27.13
2022-10-14T20:28:36.099Z,27.80
2022-10-14T20:31:13.887Z,30.43
2022-10-14T20:33:46.659Z,35.03
2022-10-14T20:36:20.407Z,30.00
2022-10-14T20:38:53.902Z,32.75
2022-10-14T20:41:27.399Z,31.83
2022-10-14T20:43:59.821Z,26.75
2022-10-14T20:46:32.711Z,28.13
2022-10-14T20:49:05.257Z,25.27
2022-10-14T20:51:38.050Z,27.53
2022-10-14T20:54:11.904Z,26.75
2022-10-14T20:56:44.859Z,31.67
2022-10-14T20:59:17.475Z,24.52
2022-10-14T21:01:50.504Z,26.10
2022-10-14T21:04:24.391Z,25.00
2022-10-14T21:06:57.582Z,30.00
2022-10-14T21:09:30.239Z,29.27
2022-10-14T21:12:03.046Z,25.40
2022-10-14T21:14:35.668Z,28.02
2022-10-14T21:17:08.725Z,24.73
2022-10-14T21:19:41.620Z,27.45
2022-10-14T21:22:14.456Z,27.42
2022-10-14T21:24:47.178Z,33.00
2022-10-14T21:27:20.181Z,27.63
2022-10-14T21:29:52.883Z,25.38
2022-10-14T21:32:26.489Z,27.25
2022-10-14T21:34:59.375Z,26.07
2022-10-14T21:37:32.216Z,26.52
2022-10-14T21:40:04.907Z,27.33
2022-10-14T21:42:37.725Z,26.33
2022-10-14T21:45:10.389Z,27.30
2022-10-14T21:47:43.260Z,24.40
2022-10-14T21:50:16.358Z,29.15
2022-10-14T21:52:49.141Z,29.83
2022-10-14T21:55:21.578Z,24.55
2022-10-14T21:57:54.510Z,27.52
2022-10-14T22:00:27.027Z,25.35
2022-10-14T22:02:59.815Z,38.13
2022-10-14T22:05:34.780Z,29.67
2022-10-14T22:08:07.629Z,28.55
2022-10-14T22:10:44.027Z,30.20
2022-10-14T22:13:17.775Z,28.73
2022-10-14T22:15:50.246Z,34.97
2022-10-14T22:18:23.474Z,23.65
2022-10-14T22:21:00.995Z,31.00
2022-10-14T22:23:33.857Z,29.23
2022-10-14T22:26:07.293Z,31.05
2022-10-14T22:28:40.622Z,31.33
2022-10-14T22:31:18.069Z,34.80
2022-10-14T22:33:51.266Z,28.00
2022-10-14T22:36:24.816Z,34.83
2022-10-14T22:38:58.210Z,26.33
2022-10-14T22:41:35.252Z,29.40
2022-10-14T22:44:09.541Z,27.47
2022-10-14T22:46:42.048Z,29.73
2022-10-14T22:49:15.263Z,32.15
2022-10-14T22:51:48.340Z,27.52
2022-10-14T22:54:21.710Z,28.85
2022-10-14T22:56:54.205Z,25.70
2022-10-14T22:59:27.186Z,27.70
2022-10-14T23:01:59.686Z,27.63
2022-10-14T23:04:32.763Z,25.75
2022-10-14T23:07:06.988Z,27.97
2022-10-14T23:09:40.118Z,24.02
2022-10-14T23:12:12.643Z,25.83
2022-10-14T23:14:45.713Z,28.75
2022-10-14T23:17:18.325Z,26.85
2022-10-14T23:19:51.167Z,23.67
2022-10-14T23:22:23.800Z,29.05
2022-10-14T23:24:56.794Z,26.98
2022-10-14T23:27:32.808Z,27.10
2022-10-14T23:30:08.578Z,22.83
2022-10-14T23:32:41.079Z,25.53
2022-10-14T23:35:13.959Z,25.43
2022-10-14T23:37:47.067Z,22.98
2022-10-14T23:40:19.911Z,22.92
2022-10-14T23:42:52.590Z,24.17
2022-10-14T23:45:25.408Z,22.38
2022-10-14T23:47:58.016Z,22.45
2022-10-14T23:50:30.956Z,21.40
2022-10-14T23:53:03.519Z,23.05
2022-10-14T23:55:36.473Z,26.55
2022-10-14T23:58:09.511Z,20.95
